Gibbstown, New Jersey
Current Conditions -  °F | °C
As of 7:54 AM on Tuesday 21 Oct 2014 (Local Time) from KPHL Reporting Station
Scattered Clouds Scattered Clouds  
Wind Chill: 54°   Ceiling: Unl
Heat Index: 54°   Visibility: 10mi
Dew Point: 48°   Wind: 5mph
Humidity: 80%   Direction: 40°NE
Pressure: 29.88"   Gusts: NA
Location:  39.83°N, 75.28°W
Report Text: KPHL 211154Z 04004KT 10SM FEW065 SCT120 SCT140 12/09 A2988 RMK AO2 SLP116 60000 T01220089 10133 20111 55004
Loading
Personal Weather Stations






























Interactive Weather Map
Tropical Storm Tracking
New forecast layout! Learn more

10-Day Weather Forecast

Advertisements
Track Severe Weather on mobile